createdAt,value
2019-04-28T00:01:36.197Z,90.82
2019-04-28T00:04:04.732Z,90.82
2019-04-28T00:06:33.558Z,90.85
2019-04-28T00:09:01.967Z,90.81
2019-04-28T00:11:31.731Z,90.78
2019-04-28T00:14:01.905Z,90.78
2019-04-28T00:16:31.348Z,90.79
2019-04-28T00:19:01.120Z,90.77
2019-04-28T00:21:37.637Z,90.76
2019-04-28T00:24:11.466Z,90.73
2019-04-28T00:26:44.982Z,90.75
2019-04-28T00:29:14.933Z,90.71
2019-04-28T00:31:43.340Z,90.69
2019-04-28T00:34:11.749Z,90.71
2019-04-28T00:36:42.906Z,90.72
2019-04-28T00:39:11.223Z,90.72
2019-04-28T00:41:42.063Z,90.74
2019-04-28T00:44:11.757Z,90.73
2019-04-28T00:46:41.184Z,90.78
2019-04-28T00:49:09.582Z,90.75
2019-04-28T00:51:38.022Z,90.76
2019-04-28T00:54:06.542Z,90.73
2019-04-28T00:56:34.987Z,90.74
2019-04-28T00:59:04.468Z,90.77
2019-04-28T01:01:43.379Z,90.73
2019-04-28T01:04:11.925Z,90.72
2019-04-28T01:06:40.405Z,90.69
2019-04-28T01:09:08.954Z,90.70
2019-04-28T01:11:38.271Z,90.69
2019-04-28T01:14:06.798Z,90.68
2019-04-28T01:16:42.825Z,90.70
2019-04-28T01:19:15.367Z,90.66
2019-04-28T01:22:01.437Z,90.67
2019-04-28T01:24:29.887Z,90.63
2019-04-28T01:26:58.307Z,90.61
2019-04-28T01:29:27.047Z,90.62
2019-04-28T01:31:57.187Z,90.61
2019-04-28T01:34:25.937Z,90.64
2019-04-28T01:36:54.392Z,90.63
2019-04-28T01:39:22.835Z,90.66
2019-04-28T01:41:52.760Z,90.70
2019-04-28T01:44:21.237Z,90.73
2019-04-28T01:46:50.238Z,90.74
2019-04-28T01:49:21.379Z,90.77
2019-04-28T01:52:00.533Z,90.74
2019-04-28T01:54:30.275Z,90.74
2019-04-28T01:57:01.096Z,90.74
2019-04-28T01:59:30.255Z,90.75
2019-04-28T02:02:00.053Z,90.78
2019-04-28T02:04:30.099Z,90.84
2019-04-28T02:07:00.510Z,90.80
2019-04-28T02:09:30.425Z,90.86
2019-04-28T02:12:00.869Z,90.84
2019-04-28T02:14:30.798Z,90.89
2019-04-28T02:17:00.543Z,90.90
2019-04-28T02:19:32.668Z,90.93
2019-04-28T02:22:05.104Z,90.91
2019-04-28T02:24:37.411Z,90.92
2019-04-28T02:27:05.993Z,90.94
2019-04-28T02:29:34.551Z,90.91
2019-04-28T02:32:05.781Z,90.91
2019-04-28T02:34:35.694Z,90.93
2019-04-28T02:37:04.393Z,90.90
2019-04-28T02:39:32.816Z,90.90
2019-04-28T02:42:02.796Z,90.89
2019-04-28T02:44:34.736Z,90.93
2019-04-28T02:47:01.510Z,90.90
2019-04-28T02:49:35.968Z,90.92
2019-04-28T02:52:14.853Z,90.92
2019-04-28T02:54:43.269Z,90.93
2019-04-28T02:57:11.724Z,91.06
2019-04-28T02:59:44.686Z,91.24
2019-04-28T03:02:12.143Z,91.24
2019-04-28T03:04:41.162Z,91.23
2019-04-28T03:07:11.488Z,91.19
2019-04-28T03:09:40.503Z,91.24
2019-04-28T03:12:11.340Z,91.31
2019-04-28T03:14:43.307Z,91.32
2019-04-28T03:17:10.963Z,91.31
2019-04-28T03:19:41.464Z,91.24
2019-04-28T03:22:11.494Z,91.26
2019-04-28T03:24:41.301Z,91.26
2019-04-28T03:27:13.153Z,91.23
2019-04-28T03:29:43.190Z,91.22
2019-04-28T03:32:35.983Z,91.18
2019-04-28T03:34:46.865Z,91.18
2019-04-28T03:37:15.269Z,91.19
2019-04-28T03:39:43.872Z,91.15
2019-04-28T03:42:12.312Z,91.15
2019-04-28T03:44:41.523Z,91.12
2019-04-28T03:47:10.729Z,91.09
2019-04-28T03:49:42.695Z,91.15
2019-04-28T03:52:10.672Z,91.11
2019-04-28T03:54:40.956Z,91.11
2019-04-28T03:57:11.740Z,91.12
2019-04-28T03:59:43.348Z,91.05
2019-04-28T04:02:11.476Z,91.12
2019-04-28T04:04:41.467Z,91.11
2019-04-28T04:07:11.250Z,91.11
2019-04-28T04:09:41.560Z,91.14
2019-04-28T04:12:30.754Z,91.13
2019-04-28T04:15:03.884Z,91.15
2019-04-28T04:17:33.679Z,91.18
2019-04-28T04:20:02.176Z,91.16
2019-04-28T04:22:31.515Z,91.20
2019-04-28T04:25:01.312Z,91.22
2019-04-28T04:27:31.038Z,91.24
2019-04-28T04:30:01.783Z,91.25
2019-04-28T04:32:30.545Z,91.22
2019-04-28T04:35:00.855Z,91.24
2019-04-28T04:37:30.778Z,91.27
2019-04-28T04:40:01.240Z,91.32
2019-04-28T04:42:30.655Z,91.31
2019-04-28T04:45:01.681Z,91.37
2019-04-28T04:47:32.760Z,91.39
2019-04-28T04:50:00.453Z,91.45
2019-04-28T04:52:30.399Z,91.53
2019-04-28T04:55:01.274Z,91.54
2019-04-28T04:57:32.227Z,91.60
2019-04-28T05:00:00.201Z,91.62
2019-04-28T05:02:40.294Z,91.64
2019-04-28T05:05:11.859Z,91.70
2019-04-28T05:07:40.644Z,91.72
2019-04-28T05:10:10.655Z,91.72
2019-04-28T05:12:40.372Z,91.74
2019-04-28T05:15:10.436Z,91.88
2019-04-28T05:17:40.563Z,91.86
2019-04-28T05:20:09.843Z,91.92
2019-04-28T05:22:42.488Z,91.94
2019-04-28T05:25:13.295Z,91.92
2019-04-28T05:27:41.729Z,91.94
2019-04-28T05:30:12.441Z,91.97
2019-04-28T05:32:45.552Z,91.95
2019-04-28T05:35:10.713Z,91.94
2019-04-28T05:37:40.712Z,91.99
2019-04-28T05:40:10.703Z,91.95
2019-04-28T05:42:40.805Z,91.94
2019-04-28T05:45:10.466Z,91.90
2019-04-28T05:47:40.609Z,91.86
2019-04-28T05:50:13.464Z,91.91
2019-04-28T05:52:55.219Z,91.87
2019-04-28T05:55:25.290Z,91.89
2019-04-28T05:57:59.931Z,91.83
2019-04-28T06:00:46.988Z,91.82
2019-04-28T06:03:22.837Z,91.77
2019-04-28T06:05:51.526Z,91.66
2019-04-28T06:08:27.244Z,91.58
2019-04-28T06:10:55.819Z,91.49
2019-04-28T06:13:24.221Z,91.41
2019-04-28T06:15:54.210Z,91.27
2019-04-28T06:18:22.584Z,91.16
2019-04-28T06:20:51.058Z,90.91
2019-04-28T06:23:19.452Z,90.42
2019-04-28T06:25:47.944Z,89.70
2019-04-28T06:28:16.322Z,89.13
2019-04-28T06:30:44.762Z,88.89
2019-04-28T06:33:13.148Z,89.08
2019-04-28T06:35:41.574Z,88.97
2019-04-28T06:38:09.969Z,88.61
2019-04-28T06:40:38.449Z,88.21
2019-04-28T06:43:06.928Z,87.92
2019-04-28T06:45:35.322Z,87.62
2019-04-28T06:48:05.434Z,87.72
2019-04-28T06:50:33.796Z,87.69
2019-04-28T06:53:03.116Z,87.51
2019-04-28T06:55:31.587Z,87.48
2019-04-28T06:58:00.086Z,87.80
2019-04-28T07:00:28.477Z,86.29
2019-04-28T07:02:57.146Z,85.96
2019-04-28T07:05:25.613Z,85.45
2019-04-28T07:07:54.023Z,85.73
2019-04-28T07:10:22.468Z,84.43
2019-04-28T07:12:50.879Z,82.32
2019-04-28T07:15:19.347Z,83.90
2019-04-28T07:17:47.833Z,83.68
2019-04-28T07:20:30.136Z,84.75
2019-04-28T07:23:00.047Z,84.29
2019-04-28T07:25:28.597Z,82.90
2019-04-28T07:27:56.943Z,82.75
2019-04-28T07:30:25.502Z,80.57
2019-04-28T07:32:55.226Z,80.43
2019-04-28T07:35:24.213Z,80.73
2019-04-28T07:37:52.798Z,81.74
2019-04-28T07:40:21.249Z,80.00
2019-04-28T07:42:49.656Z,79.47
2019-04-28T07:45:19.570Z,81.52
2019-04-28T07:47:47.943Z,80.49
2019-04-28T07:50:17.419Z,80.88
2019-04-28T07:53:02.120Z,81.04
2019-04-28T07:55:32.767Z,79.44
2019-04-28T07:58:01.148Z,74.97
2019-04-28T08:00:32.653Z,75.96
2019-04-28T08:03:01.121Z,76.67
2019-04-28T08:05:29.577Z,76.99
2019-04-28T08:07:57.964Z,76.88
2019-04-28T08:10:26.418Z,76.19
2019-04-28T08:12:54.856Z,76.66
2019-04-28T08:15:23.317Z,76.18
2019-04-28T08:17:51.727Z,75.15
2019-04-28T08:20:20.107Z,70.42
2019-04-28T08:22:48.587Z,72.44
2019-04-28T08:25:16.935Z,71.00
2019-04-28T08:27:45.368Z,71.23
2019-04-28T08:30:13.952Z,70.55
2019-04-28T08:32:52.763Z,69.81
2019-04-28T08:35:21.343Z,66.02
2019-04-28T08:37:49.747Z,67.52
2019-04-28T08:40:18.327Z,67.55
2019-04-28T08:42:46.719Z,64.88
2019-04-28T08:45:15.230Z,67.22
2019-04-28T08:47:43.693Z,68.08
2019-04-28T08:50:13.776Z,66.97
2019-04-28T08:52:42.428Z,65.43
2019-04-28T08:55:10.794Z,63.32
2019-04-28T08:57:40.742Z,64.66
2019-04-28T09:00:10.943Z,57.05
2019-04-28T09:02:40.857Z,62.64
2019-04-28T09:05:09.304Z,63.12
2019-04-28T09:07:37.707Z,59.50
2019-04-28T09:10:07.620Z,58.10
2019-04-28T09:12:36.011Z,60.34
2019-04-28T09:15:08.513Z,60.42
2019-04-28T09:17:38.137Z,60.55
2019-04-28T09:20:09.613Z,65.09
2019-04-28T09:22:39.708Z,62.31
2019-04-28T09:25:09.882Z,56.88
2019-04-28T09:27:39.805Z,54.43
2019-04-28T09:30:08.823Z,58.34
2019-04-28T09:32:37.221Z,57.59
2019-04-28T09:35:07.503Z,60.09
2019-04-28T09:37:38.495Z,56.42
2019-04-28T09:40:09.179Z,56.55
2019-04-28T09:42:40.795Z,55.59
2019-04-28T09:45:26.223Z,57.54
2019-04-28T09:47:54.691Z,54.54
2019-04-28T09:50:23.346Z,57.66
2019-04-28T09:52:51.754Z,54.38
2019-04-28T09:55:20.197Z,55.89
2019-04-28T09:57:48.552Z,52.67
2019-04-28T10:00:17.490Z,50.90
2019-04-28T10:02:45.937Z,50.41
2019-04-28T10:05:14.511Z,53.55
2019-04-28T10:07:43.778Z,52.38
2019-04-28T10:10:12.621Z,49.31
2019-04-28T10:12:41.181Z,52.97
2019-04-28T10:15:10.227Z,50.51
2019-04-28T10:17:38.762Z,50.71
2019-04-28T10:20:07.722Z,52.43
2019-04-28T10:22:36.106Z,51.53
2019-04-28T10:25:08.002Z,51.36
2019-04-28T10:27:36.404Z,51.24
2019-04-28T10:30:10.046Z,54.50
2019-04-28T10:32:38.743Z,54.58
2019-04-28T10:35:07.977Z,55.13
2019-04-28T10:37:36.531Z,55.47
2019-04-28T10:40:11.202Z,56.87
2019-04-28T10:42:39.588Z,54.77
2019-04-28T10:45:09.765Z,54.80
2019-04-28T10:47:38.559Z,56.77
2019-04-28T10:50:07.589Z,55.68
2019-04-28T10:52:35.999Z,54.32
2019-04-28T10:55:05.733Z,55.60
2019-04-28T10:57:34.128Z,55.68
2019-04-28T11:00:02.684Z,53.75
2019-04-28T11:02:31.071Z,58.83
2019-04-28T11:05:08.093Z,54.45
2019-04-28T11:07:31.423Z,53.91
2019-04-28T11:10:04.348Z,54.82
2019-04-28T11:12:32.811Z,54.12
2019-04-28T11:15:02.105Z,53.79
2019-04-28T11:17:32.097Z,53.04
2019-04-28T11:20:00.543Z,52.96
2019-04-28T11:22:28.957Z,53.11
2019-04-28T11:24:57.365Z,53.11
2019-04-28T11:27:26.347Z,54.32
2019-04-28T11:29:55.111Z,56.79
2019-04-28T11:32:23.595Z,59.38
2019-04-28T11:34:53.637Z,60.26
2019-04-28T11:37:22.036Z,61.79
2019-04-28T11:39:50.424Z,64.90
2019-04-28T11:42:18.855Z,65.65
2019-04-28T11:44:47.245Z,66.37
2019-04-28T11:47:19.764Z,68.00
2019-04-28T11:49:48.198Z,68.87
2019-04-28T11:52:16.881Z,69.66
2019-04-28T11:54:45.440Z,69.51
2019-04-28T11:57:13.917Z,69.51
2019-04-28T11:59:42.363Z,71.55
2019-04-28T12:02:10.944Z,70.38
2019-04-28T12:04:39.325Z,70.98
2019-04-28T12:07:07.892Z,70.12
2019-04-28T12:09:40.630Z,68.06
2019-04-28T12:12:22.557Z,63.23
2019-04-28T12:15:10.715Z,60.98
2019-04-28T12:17:46.359Z,58.83
2019-04-28T12:20:16.541Z,56.41
2019-04-28T12:22:44.919Z,54.09
2019-04-28T12:25:13.433Z,47.87
2019-04-28T12:27:41.966Z,48.78
2019-04-28T12:30:10.976Z,50.44
2019-04-28T12:32:39.375Z,50.40
2019-04-28T12:35:08.389Z,46.52
2019-04-28T12:37:36.788Z,45.83
2019-04-28T12:40:07.302Z,48.79
2019-04-28T12:42:35.815Z,47.75
2019-04-28T12:45:06.864Z,48.01
2019-04-28T12:47:35.435Z,47.79
2019-04-28T12:50:16.427Z,47.96
2019-04-28T12:52:45.313Z,48.96
2019-04-28T12:55:15.192Z,45.00
2019-04-28T12:57:43.619Z,51.63
2019-04-28T13:00:30.373Z,47.60
2019-04-28T13:03:15.967Z,45.60
2019-04-28T13:06:00.140Z,46.30
2019-04-28T13:08:18.596Z,46.13
2019-04-28T13:10:46.971Z,50.23
2019-04-28T13:13:15.500Z,43.47
2019-04-28T13:15:43.875Z,47.59
2019-04-28T13:18:12.281Z,49.18
2019-04-28T13:20:40.858Z,47.10
2019-04-28T13:23:10.762Z,46.81
2019-04-28T13:25:39.133Z,45.07
2019-04-28T13:28:09.188Z,44.13
2019-04-28T13:30:37.760Z,44.13
2019-04-28T13:33:06.244Z,42.18
2019-04-28T13:35:34.672Z,43.73
2019-04-28T13:38:03.045Z,47.42
2019-04-28T13:40:33.149Z,41.52
2019-04-28T13:43:01.666Z,41.63
2019-04-28T13:45:30.543Z,44.17
2019-04-28T13:47:58.983Z,46.04
2019-04-28T13:50:36.451Z,46.49
2019-04-28T13:53:06.491Z,47.80
2019-04-28T13:55:38.380Z,47.32
2019-04-28T13:58:06.983Z,47.35
2019-04-28T14:00:45.667Z,49.01
2019-04-28T14:03:31.704Z,47.92
2019-04-28T14:06:01.738Z,51.25
2019-04-28T14:08:30.162Z,45.93
2019-04-28T14:10:58.652Z,50.26
2019-04-28T14:13:27.051Z,48.54
2019-04-28T14:15:55.420Z,47.72
2019-04-28T14:18:23.906Z,48.50
2019-04-28T14:20:52.234Z,49.04
2019-04-28T14:23:20.667Z,51.10
2019-04-28T14:25:49.131Z,49.73
2019-04-28T14:28:17.510Z,50.56
2019-04-28T14:30:45.933Z,50.63
2019-04-28T14:33:16.368Z,50.08
2019-04-28T14:35:44.415Z,48.94
2019-04-28T14:38:12.931Z,48.34
2019-04-28T14:40:41.338Z,47.24
2019-04-28T14:43:09.750Z,50.19
2019-04-28T14:45:38.253Z,53.01
2019-04-28T14:48:06.823Z,50.66
2019-04-28T14:50:35.428Z,51.00
2019-04-28T14:53:04.274Z,51.50
2019-04-28T14:55:32.728Z,47.73
2019-04-28T14:58:02.611Z,50.93
2019-04-28T15:00:32.809Z,52.25
2019-04-28T15:03:06.015Z,50.85
2019-04-28T15:05:52.113Z,51.98
2019-04-28T15:08:34.113Z,52.24
2019-04-28T15:11:10.142Z,54.96
2019-04-28T15:13:38.519Z,52.25
2019-04-28T15:16:06.928Z,52.13
2019-04-28T15:18:35.333Z,51.49
2019-04-28T15:21:04.419Z,52.08
2019-04-28T15:23:32.841Z,52.47
2019-04-28T15:26:01.238Z,53.26
2019-04-28T15:28:29.616Z,52.97
2019-04-28T15:30:58.023Z,51.72
2019-04-28T15:33:26.553Z,53.12
2019-04-28T15:35:54.998Z,53.72
2019-04-28T15:38:23.679Z,55.15
2019-04-28T15:40:52.057Z,54.56
2019-04-28T15:43:20.762Z,54.97
2019-04-28T15:45:49.126Z,52.88
2019-04-28T15:48:17.634Z,53.63
2019-04-28T15:50:46.018Z,53.67
2019-04-28T15:53:14.404Z,54.67
2019-04-28T15:55:44.459Z,56.75
2019-04-28T15:58:30.861Z,57.12
2019-04-28T16:00:59.397Z,57.29
2019-04-28T16:03:28.098Z,58.55
2019-04-28T16:05:59.611Z,57.25
2019-04-28T16:08:26.579Z,57.71
2019-04-28T16:10:54.986Z,57.22
2019-04-28T16:13:23.364Z,55.60
2019-04-28T16:15:53.279Z,57.57
2019-04-28T16:18:21.746Z,56.71
2019-04-28T16:20:50.215Z,54.24
2019-04-28T16:23:18.697Z,55.92
2019-04-28T16:25:47.334Z,57.12
2019-04-28T16:28:15.711Z,57.02
2019-04-28T16:30:44.112Z,56.74
2019-04-28T16:33:12.553Z,56.16
2019-04-28T16:35:40.938Z,57.46
2019-04-28T16:38:09.434Z,56.65
2019-04-28T16:40:37.790Z,56.72
2019-04-28T16:43:06.170Z,55.59
2019-04-28T16:45:34.822Z,54.96
2019-04-28T16:48:03.231Z,55.21
2019-04-28T16:50:31.907Z,54.37
2019-04-28T16:53:00.334Z,54.59
2019-04-28T16:55:33.058Z,55.84
2019-04-28T16:58:03.141Z,56.37
2019-04-28T17:00:43.826Z,56.81
2019-04-28T17:03:12.223Z,57.08
2019-04-28T17:05:40.718Z,56.50
2019-04-28T17:08:09.090Z,56.96
2019-04-28T17:10:37.467Z,56.66
2019-04-28T17:13:05.877Z,57.35
2019-04-28T17:15:34.591Z,58.06
2019-04-28T17:18:03.090Z,56.73
2019-04-28T17:20:31.636Z,58.38
2019-04-28T17:23:00.231Z,59.44
2019-04-28T17:25:28.612Z,59.34
2019-04-28T17:27:57.098Z,59.31
2019-04-28T17:30:25.755Z,59.31
2019-04-28T17:32:54.144Z,59.64
2019-04-28T17:35:25.758Z,59.42
2019-04-28T17:38:05.971Z,58.35
2019-04-28T17:40:25.335Z,60.07
2019-04-28T17:42:53.848Z,60.76
2019-04-28T17:45:22.288Z,61.77
2019-04-28T17:47:52.494Z,63.13
2019-04-28T17:50:21.846Z,64.65
2019-04-28T17:52:50.266Z,65.16
2019-04-28T17:55:18.728Z,65.11
2019-04-28T17:57:47.100Z,65.87
2019-04-28T18:00:22.993Z,66.28
2019-04-28T18:02:59.605Z,66.07
2019-04-28T18:05:29.663Z,66.46
2019-04-28T18:07:59.697Z,66.37
2019-04-28T18:10:29.345Z,67.48
2019-04-28T18:13:00.763Z,68.50
2019-04-28T18:15:35.375Z,68.45
2019-04-28T18:18:06.044Z,68.81
2019-04-28T18:20:34.526Z,69.26
2019-04-28T18:23:02.960Z,69.91
2019-04-28T18:25:31.597Z,70.26
2019-04-28T18:28:00.246Z,70.81
2019-04-28T18:30:30.247Z,70.85
2019-04-28T18:33:08.906Z,70.46
2019-04-28T18:35:38.927Z,71.44
2019-04-28T18:38:15.025Z,72.13
2019-04-28T18:40:46.477Z,72.35
2019-04-28T18:43:16.499Z,72.75
2019-04-28T18:45:44.868Z,73.18
2019-04-28T18:48:13.317Z,73.03
2019-04-28T18:50:41.687Z,72.59
2019-04-28T18:53:10.327Z,72.87
2019-04-28T18:55:40.201Z,73.57
2019-04-28T18:58:08.599Z,73.41
2019-04-28T19:00:38.691Z,72.99
2019-04-28T19:03:07.086Z,73.15
2019-04-28T19:05:37.290Z,73.67
2019-04-28T19:08:10.160Z,73.48
2019-04-28T19:10:55.432Z,74.70
2019-04-28T19:13:25.444Z,74.66
2019-04-28T19:15:55.564Z,74.38
2019-04-28T19:18:43.408Z,74.58
2019-04-28T19:21:13.413Z,74.66
2019-04-28T19:23:41.776Z,74.63
2019-04-28T19:26:11.720Z,75.07
2019-04-28T19:28:40.113Z,75.04
2019-04-28T19:31:08.483Z,75.10
2019-04-28T19:33:36.905Z,75.60
2019-04-28T19:36:05.482Z,75.62
2019-04-28T19:38:34.001Z,75.93
2019-04-28T19:41:02.375Z,76.13
2019-04-28T19:43:30.941Z,76.04
2019-04-28T19:46:01.007Z,76.26
2019-04-28T19:48:29.366Z,76.42
2019-04-28T19:50:59.274Z,76.61
2019-04-28T19:53:27.684Z,77.14
2019-04-28T19:56:00.448Z,77.66
2019-04-28T19:58:37.968Z,81.64
2019-04-28T20:01:12.073Z,81.69
2019-04-28T20:03:40.691Z,81.41
2019-04-28T20:06:10.782Z,80.13
2019-04-28T20:08:40.633Z,79.87
2019-04-28T20:11:09.267Z,79.64
2019-04-28T20:13:37.640Z,79.32
2019-04-28T20:16:07.913Z,80.16
2019-04-28T20:18:36.779Z,79.80
2019-04-28T20:21:05.368Z,80.83
2019-04-28T20:23:33.753Z,80.92
2019-04-28T20:26:02.198Z,81.02
2019-04-28T20:28:30.738Z,80.56
2019-04-28T20:30:59.109Z,80.26
2019-04-28T20:33:27.490Z,80.31
2019-04-28T20:35:57.506Z,81.77
2019-04-28T20:38:27.664Z,81.46
2019-04-28T20:41:06.583Z,81.67
2019-04-28T20:43:34.959Z,82.02
2019-04-28T20:46:04.446Z,82.49
2019-04-28T20:48:33.461Z,82.04
2019-04-28T20:51:01.849Z,82.29
2019-04-28T20:53:30.217Z,82.40
2019-04-28T20:55:58.672Z,83.12
2019-04-28T20:58:27.041Z,83.15
2019-04-28T21:00:55.519Z,82.75
2019-04-28T21:03:24.107Z,81.89
2019-04-28T21:05:52.693Z,82.06
2019-04-28T21:08:21.065Z,82.08
2019-04-28T21:10:50.090Z,82.14
2019-04-28T21:13:18.581Z,82.05
2019-04-28T21:15:46.941Z,82.15
2019-04-28T21:18:15.331Z,82.21
2019-04-28T21:20:48.778Z,82.36
2019-04-28T21:23:17.238Z,82.26
2019-04-28T21:25:45.751Z,82.05
2019-04-28T21:28:14.228Z,81.81
2019-04-28T21:30:42.634Z,81.87
2019-04-28T21:33:11.043Z,82.17
2019-04-28T21:35:40.167Z,82.20
2019-04-28T21:38:08.528Z,82.06
2019-04-28T21:40:37.696Z,82.04
2019-04-28T21:43:25.582Z,82.12
2019-04-28T21:45:58.583Z,82.24
2019-04-28T21:48:40.485Z,82.37
2019-04-28T21:51:12.114Z,82.36
2019-04-28T21:53:40.578Z,82.54
2019-04-28T21:56:09.116Z,82.65
2019-04-28T21:58:37.700Z,82.95
2019-04-28T22:01:07.692Z,84.35
2019-04-28T22:03:36.715Z,85.44
2019-04-28T22:06:05.085Z,85.92
2019-04-28T22:08:33.504Z,85.07
2019-04-28T22:11:01.936Z,84.34
2019-04-28T22:13:31.832Z,83.69
2019-04-28T22:16:00.231Z,83.39
2019-04-28T22:18:30.581Z,83.32
2019-04-28T22:20:58.937Z,83.39
2019-04-28T22:23:28.980Z,83.09
2019-04-28T22:25:57.711Z,82.95
2019-04-28T22:28:26.097Z,82.95
2019-04-28T22:30:54.465Z,82.98
2019-04-28T22:33:22.935Z,83.02
2019-04-28T22:35:51.302Z,83.16
2019-04-28T22:38:19.689Z,82.97
2019-04-28T22:40:48.060Z,83.31
2019-04-28T22:43:16.456Z,83.13
2019-04-28T22:45:44.830Z,83.26
2019-04-28T22:48:14.993Z,83.39
2019-04-28T22:50:46.471Z,83.54
2019-04-28T22:53:16.588Z,83.56
2019-04-28T22:55:48.170Z,83.62
2019-04-28T22:58:18.230Z,83.51
2019-04-28T23:00:54.538Z,83.50
2019-04-28T23:03:24.758Z,83.71
2019-04-28T23:05:53.226Z,83.82
2019-04-28T23:08:21.598Z,83.79
2019-04-28T23:10:50.277Z,83.86
2019-04-28T23:13:20.847Z,83.95
2019-04-28T23:15:49.430Z,83.84
2019-04-28T23:18:18.032Z,84.03
2019-04-28T23:20:48.068Z,84.82
2019-04-28T23:23:16.453Z,84.60
2019-04-28T23:25:45.193Z,84.46
2019-04-28T23:28:13.580Z,84.38
2019-04-28T23:30:44.960Z,84.44
2019-04-28T23:33:13.479Z,84.48
2019-04-28T23:35:42.032Z,84.55
2019-04-28T23:38:10.677Z,84.61
2019-04-28T23:40:40.783Z,84.63
2019-04-28T23:43:10.796Z,84.63
2019-04-28T23:45:39.259Z,84.59
2019-04-28T23:48:09.165Z,84.60
2019-04-28T23:50:41.989Z,84.56
2019-04-28T23:53:17.945Z,84.83
2019-04-28T23:55:46.302Z,84.87
2019-04-28T23:58:14.709Z,84.99
